K21S

2019-05-25 16:15:09Z

Plaintext report →

Current Status: Clear

Temperature
High21.6 °C70.9 °F
Current30.0 °C86.0 °F
Low19.4 °C66.9 °F
Feels Like32.6 °C90.7 °F
Dewpoint20.9 °C69.6 °F
Winds
Speed and Direction2.1 m/s4.7 mi/h 4 kn310 °
Gust0.0 m/s0.00 mi/h 0 kn
SquallUnavailable
Pressure and Humidity
Pressure At Field Level1019.0 mb30.1 in
Pressure At Sea Level1021.7 mb30.2 in
Pressure Trend0.4 mb0.0 in
Pressure Tendency 0
Humidity59 %

Station Alarms & Warnings:

Ceilometer Alarms / Warnings:

Ceilometer Data Missing!
Historical Weather Phenomenon Graphs

Additional Information:

  METAR K21S 251615Z AUTO 31004KT NCD 30/21 A3009 RMK AO2 SLP217 10216
  20194 50003 $=    
Cloud Cover
Layer 1 Undetected
Layer 2 Undetected
Layer 3 Undetected
Winds
2-minute Winds
Minimum0.0 m/s0.00 mi/h 0 kn156 °
Average1.6 m/s3.58 mi/h 3 kn352 °
Maximum4.6 m/s10.29 mi/h 8 kn136 °
10-minute Winds
Minimum0.0 m/s0.00 mi/h 0 kn188 °
Average1.4 m/s3.13 mi/h 2 kn322 °
Maximum4.6 m/s10.29 mi/h 8 kn166 °
Precipitation
Intensity0.00 mm/h0.00 in/h
Rainfall
1-hour Total0.00 mm0.00 in
3-hour Total0.00 mm0.00 in
6-hour Total0.00 mm0.00 in
24-hour Total0.00 mm0.00 in
Precipitation
1-hour Total0.00 mm0.00 in
3-hour Total0.00 mm0.00 in
6-hour Total0.00 mm0.00 in
24-hour Total0.00 mm0.00 in